Time;durP1;ratioP1;P1;durP2;ratioP2;P2;SDS_P1;SDS_P2;PMS_P1;PMS_P2;Temp;Humidity;BMP_temperature;BMP_pressure;BME280_temperature;BME280_humidity;BME280_pressure;Samples;Min_cycle;Max_cycle;Signal;HPM_P1;HPM_P2
2023/02/02 00:01:46;;;;;;;14.57;8.23;;;;;;;1.88;100.00;100407.78;5002380;28;20041;-77
2023/02/02 00:04:17;;;;;;;10.57;6.63;;;;;;;1.88;100.00;100388.81;4998698;28;20061;-76
2023/02/02 00:06:44;;;;;;;12.75;7.43;;;;;;;1.63;100.00;100354.31;5014543;28;20042;-77
2023/02/02 00:09:12;;;;;;;12.88;6.90;;;;;;;1.93;100.00;100407.09;5008592;28;20078;-77
2023/02/02 00:11:37;;;;;;;10.05;6.00;;;;;;;0.93;100.00;100258.78;5009255;28;20062;-78
2023/02/02 00:14:03;;;;;;;14.05;7.25;;;;;;;1.07;100.00;100277.34;5016439;28;20068;-77
2023/02/02 00:16:28;;;;;;;14.75;7.75;;;;;;;1.89;100.00;100414.72;5017581;28;20129;-77
2023/02/02 00:18:59;;;;;;;12.43;6.97;;;;;;;1.77;100.00;100416.00;5010343;28;20049;-78
2023/02/02 00:21:25;;;;;;;13.45;7.63;;;;;;;0.91;100.00;100299.16;5012556;28;20540;-81
2023/02/02 00:23:51;;;;;;;22.50;10.23;;;;;;;1.76;100.00;100409.09;5016554;28;20452;-76
2023/02/02 00:26:18;;;;;;;12.80;7.05;;;;;;;1.13;100.00;100259.50;5013105;28;20041;-78
2023/02/02 00:28:43;;;;;;;13.68;7.60;;;;;;;1.47;100.00;100308.06;5017946;28;20030;-78
2023/02/02 00:31:09;;;;;;;14.88;7.38;;;;;;;1.77;100.00;100383.25;5013233;28;20057;-78
2023/02/02 00:33:34;;;;;;;16.63;9.35;;;;;;;1.47;100.00;100306.38;5014013;28;20054;-75
2023/02/02 00:36:00;;;;;;;15.73;8.00;;;;;;;1.07;100.00;100225.69;5000507;28;20057;-77
2023/02/02 00:38:25;;;;;;;14.82;8.40;;;;;;;1.82;100.00;100373.06;5000756;28;20057;-76
2023/02/02 00:40:51;;;;;;;24.45;8.07;;;;;;;1.59;100.00;100356.75;5004248;28;20040;-77
2023/02/02 00:43:16;;;;;;;16.17;7.35;;;;;;;1.81;100.00;100384.25;5002946;28;20084;-77
2023/02/02 00:45:42;;;;;;;10.07;6.68;;;;;;;1.64;100.00;100371.63;5000480;28;20459;-78
2023/02/02 00:48:09;;;;;;;32.17;9.65;;;;;;;1.29;100.00;100323.84;5005609;28;20129;-76
2023/02/02 00:50:35;;;;;;;10.88;7.50;;;;;;;0.92;100.00;100226.03;5007948;28;20050;-79
2023/02/02 00:53:01;;;;;;;12.05;7.75;;;;;;;1.71;100.00;100352.03;5005735;28;20080;-75
2023/02/02 00:55:26;;;;;;;14.10;6.82;;;;;;;1.60;100.00;100358.53;5000000;28;20478;-78
2023/02/02 00:57:52;;;;;;;14.77;8.55;;;;;;;1.52;100.00;100359.94;5005213;28;20687;-78
2023/02/02 01:00:22;;;;;;;11.15;6.93;;;;;;;1.32;100.00;100292.91;4998120;28;20414;-77
2023/02/02 01:02:53;;;;;;;17.83;7.68;;;;;;;1.71;100.00;100358.88;5004376;28;20530;-77
2023/02/02 01:05:19;;;;;;;12.98;6.30;;;;;;;1.43;100.00;100321.75;5001347;28;20569;-75
2023/02/02 01:07:46;;;;;;;11.70;6.90;;;;;;;1.11;100.00;100312.81;5000234;28;20109;-78
2023/02/02 01:10:16;;;;;;;14.57;8.10;;;;;;;1.60;100.00;100371.44;5005380;28;20030;-76
2023/02/02 01:12:43;;;;;;;11.63;6.55;;;;;;;1.37;100.00;100342.19;4999855;28;20046;-76
2023/02/02 01:15:09;;;;;;;16.17;8.27;;;;;;;0.79;100.00;100260.84;5000935;28;20104;-77
2023/02/02 01:17:35;;;;;;;10.40;6.25;;;;;;;0.36;100.00;100202.47;5000932;28;20140;-79
2023/02/02 01:20:01;;;;;;;10.80;5.68;;;;;;;0.48;100.00;100205.50;5004600;28;20030;-77
2023/02/02 01:22:26;;;;;;;15.00;6.95;;;;;;;0.63;100.00;100195.75;5008128;28;20478;-75
2023/02/02 01:24:52;;;;;;;15.73;9.60;;;;;;;0.49;100.00;100189.22;5006696;28;20119;-77
2023/02/02 01:27:17;;;;;;;15.77;6.57;;;;;;;1.25;100.00;100330.56;4997913;28;20553;-76
2023/02/02 01:29:43;;;;;;;10.13;6.95;;;;;;;1.34;100.00;100337.78;4997249;28;20132;-78
2023/02/02 01:32:09;;;;;;;15.10;7.13;;;;;;;1.28;100.00;100340.16;5002756;28;20078;-76
2023/02/02 01:34:35;;;;;;;14.00;6.90;;;;;;;1.21;100.00;100309.75;4996716;28;20469;-76
2023/02/02 01:37:00;;;;;;;11.85;6.97;;;;;;;0.96;100.00;100295.94;4998801;28;20045;-76
2023/02/02 01:39:26;;;;;;;10.45;5.82;;;;;;;0.12;100.00;100164.63;4997685;28;20049;-76
2023/02/02 01:41:51;;;;;;;21.27;8.63;;;;;;;1.24;100.00;100346.03;4996203;28;20216;-78
2023/02/02 01:44:51;;;;;;;13.45;7.15;;;;;;;1.18;100.00;100326.00;4997749;28;20100;-78
2023/02/02 01:47:19;;;;;;;12.20;6.35;;;;;;;1.25;100.00;100309.03;4994848;28;20060;-76
2023/02/02 01:49:45;;;;;;;11.57;7.00;;;;;;;0.67;100.00;100221.69;4997878;28;20033;-74
2023/02/02 01:52:14;;;;;;;13.57;6.95;;;;;;;1.09;100.00;100317.06;4997333;28;20030;-78
2023/02/02 01:54:44;;;;;;;12.38;6.97;;;;;;;1.23;100.00;100315.84;4998008;28;20113;-75
2023/02/02 01:57:13;;;;;;;8.50;5.32;;;;;;;1.13;100.00;100317.22;4995854;28;20052;-77
2023/02/02 01:59:39;;;;;;;9.90;6.43;;;;;;;0.94;100.00;100315.66;4998519;28;20760;-78
2023/02/02 02:02:06;;;;;;;12.68;7.13;;;;;;;1.25;100.00;100321.94;4998927;28;20054;-78
2023/02/02 02:04:32;;;;;;;14.73;6.38;;;;;;;1.35;100.00;100326.63;5003727;28;20072;-79
2023/02/02 02:07:00;;;;;;;13.48;7.28;;;;;;;0.52;100.00;100189.31;5000756;28;20038;-80
2023/02/02 02:09:25;;;;;;;14.25;7.18;;;;;;;0.93;100.00;100277.72;4995193;28;20061;-77
2023/02/02 02:11:52;;;;;;;11.05;4.88;;;;;;;1.17;100.00;100329.44;4994191;28;20495;-76
2023/02/02 02:17:07;;;;;;;8.27;5.28;;;;;;;1.23;100.00;100327.06;4996599;28;24338;-77
2023/02/02 02:26:33;;;;;;;10.63;6.63;;;;;;;1.36;100.00;100350.75;4992870;28;20074;-79
2023/02/02 02:29:31;;;;;;;9.60;4.35;;;;;;;1.38;100.00;100338.75;4998376;28;20037;-78
2023/02/02 02:32:13;;;;;;;9.70;4.18;;;;;;;1.58;100.00;100318.78;4992446;28;20034;-79
2023/02/02 02:34:53;;;;;;;15.27;5.88;;;;;;;1.46;100.00;100321.84;5003989;28;20113;-76
2023/02/02 02:37:48;;;;;;;15.68;5.50;;;;;;;1.59;100.00;100316.28;5012696;28;20116;-78
2023/02/02 02:40:27;;;;;;;12.68;5.60;;;;;;;1.60;100.00;100322.31;4989429;28;20058;-77
2023/02/02 02:42:59;;;;;;;8.45;5.10;;;;;;;1.67;100.00;100326.88;5000857;28;20049;-79
2023/02/02 02:45:27;;;;;;;12.30;5.10;;;;;;;0.91;100.00;100204.47;5002331;28;20104;-78
2023/02/02 02:47:54;;;;;;;9.18;6.05;;;;;;;0.79;100.00;100189.41;5001011;28;20089;-79
2023/02/02 02:50:20;;;;;;;10.60;5.82;;;;;;;0.95;100.00;100226.13;5001204;28;20056;-78
2023/02/02 02:52:48;;;;;;;11.23;5.32;;;;;;;1.41;100.00;100315.63;4994150;28;20051;-77
2023/02/02 02:55:14;;;;;;;7.32;5.10;;;;;;;1.09;100.00;100249.88;5001381;28;20033;-75
2023/02/02 02:57:39;;;;;;;9.07;5.45;;;;;;;1.48;100.00;100338.28;4999939;28;20050;-78
2023/02/02 03:00:39;;;;;;;7.53;4.20;;;;;;;0.83;100.00;100250.69;5002885;28;20072;-77
2023/02/02 03:03:26;;;;;;;11.45;5.70;;;;;;;1.43;100.00;100335.53;4995088;28;20078;-75
2023/02/02 03:06:00;;;;;;;11.77;5.18;;;;;;;1.34;100.00;100340.38;4991485;28;20525;-76
2023/02/02 03:08:34;;;;;;;9.95;6.15;;;;;;;0.82;100.00;100240.31;5002564;28;20053;-76
2023/02/02 03:11:02;;;;;;;12.45;6.15;;;;;;;0.62;100.00;100193.09;5003934;28;20026;-76
2023/02/02 03:13:29;;;;;;;11.52;5.75;;;;;;;0.64;100.00;100232.78;5004599;28;20347;-76
2023/02/02 03:15:55;;;;;;;10.50;4.35;;;;;;;0.36;100.00;100213.66;5000807;28;20107;-76
2023/02/02 03:18:24;;;;;;;10.02;7.28;;;;;;;0.41;100.00;100231.91;5003899;28;20045;-75
2023/02/02 03:20:49;;;;;;;13.32;6.05;;;;;;;0.67;100.00;100235.47;5000930;28;20046;-76
2023/02/02 03:23:15;;;;;;;11.18;6.30;;;;;;;0.73;100.00;100242.56;5002876;28;20520;-76
2023/02/02 03:25:40;;;;;;;10.20;5.93;;;;;;;1.25;100.00;100355.56;5000052;28;20172;-78
2023/02/02 03:28:06;;;;;;;12.15;6.32;;;;;;;0.40;100.00;100204.34;5001886;28;20379;-75
2023/02/02 03:30:32;;;;;;;10.07;5.82;;;;;;;0.45;100.00;100195.09;5005136;28;20057;-75
2023/02/02 03:32:58;;;;;;;9.60;5.00;;;;;;;0.48;100.00;100220.13;5004967;28;20053;-75
2023/02/02 03:35:25;;;;;;;8.45;4.65;;;;;;;0.68;100.00;100280.22;4998507;28;20401;-77
2023/02/02 03:37:50;;;;;;;10.35;6.07;;;;;;;1.03;100.00;100352.19;5003601;28;20489;-76
2023/02/02 03:40:16;;;;;;;7.25;4.63;;;;;;;0.40;100.00;100236.19;5002204;28;20045;-76
2023/02/02 03:42:42;;;;;;;11.40;6.60;;;;;;;0.68;100.00;100267.31;5004515;28;20726;-77
2023/02/02 03:45:08;;;;;;;10.57;6.30;;;;;;;1.07;100.00;100334.19;5015761;28;20179;-77
2023/02/02 03:47:33;;;;;;;9.52;5.85;;;;;;;-0.12;100.00;100187.75;4999541;28;20093;-76
2023/02/02 03:49:58;;;;;;;10.60;6.22;;;;;;;0.77;100.00;100302.13;4998157;28;20117;-77
2023/02/02 03:52:24;;;;;;;12.32;6.88;;;;;;;0.59;100.00;100296.28;5003763;28;20577;-78
2023/02/02 03:54:50;;;;;;;11.48;7.00;;;;;;;0.71;100.00;100326.84;5009847;28;20163;-78
2023/02/02 03:57:16;;;;;;;10.57;6.50;;;;;;;0.79;100.00;100330.59;5003058;28;20056;-78
2023/02/02 03:59:41;;;;;;;11.18;6.40;;;;;;;-0.32;100.00;100170.63;5003821;28;20046;-77
2023/02/02 04:02:07;;;;;;;10.15;6.10;;;;;;;-0.12;100.00;100168.81;5000697;28;20104;-79
2023/02/02 04:04:32;;;;;;;19.58;6.95;;;;;;;0.74;100.00;100296.84;4998259;28;20467;-78
2023/02/02 04:06:58;;;;;;;8.05;5.07;;;;;;;0.76;100.00;100299.50;5005563;28;20565;-76
2023/02/02 04:09:24;;;;;;;12.52;5.50;;;;;;;0.74;100.00;100276.19;5004224;28;20038;-76
2023/02/02 04:11:50;;;;;;;13.82;6.30;;;;;;;0.12;100.00;100158.59;5007217;28;20212;-75
2023/02/02 04:14:15;;;;;;;10.68;5.43;;;;;;;1.01;100.00;100306.44;5001908;28;20652;-76
2023/02/02 04:16:41;;;;;;;9.95;4.85;;;;;;;0.82;100.00;100281.66;5004769;28;20044;-76
2023/02/02 04:19:07;;;;;;;11.35;4.20;;;;;;;0.07;100.00;100166.16;5003924;28;20038;-75
2023/02/02 04:21:32;;;;;;;9.27;4.57;;;;;;;0.86;100.00;100299.00;5001059;28;20042;-76
2023/02/02 04:23:58;;;;;;;7.50;4.65;;;;;;;0.18;100.00;100161.38;5004010;28;20069;-75
2023/02/02 04:26:25;;;;;;;8.70;4.22;;;;;;;0.99;100.00;100301.22;5000914;28;20058;-75
2023/02/02 04:28:51;;;;;;;7.03;3.92;;;;;;;0.87;100.00;100290.44;5000771;28;20053;-75
2023/02/02 04:31:16;;;;;;;9.38;5.82;;;;;;;0.86;100.00;100292.97;5004233;28;20041;-75
2023/02/02 04:33:42;;;;;;;11.75;6.78;;;;;;;0.04;100.00;100163.44;5000174;28;20172;-77
2023/02/02 04:36:07;;;;;;;8.30;4.43;;;;;;;0.19;100.00;100168.31;5002492;28;20572;-76
2023/02/02 04:38:33;;;;;;;11.40;6.88;;;;;;;0.09;100.00;100171.34;4998656;28;20054;-77
2023/02/02 04:41:06;;;;;;;9.02;4.80;;;;;;;-0.11;100.00;100153.41;5005677;28;20038;-77
2023/02/02 04:43:33;;;;;;;9.43;5.15;;;;;;;0.84;100.00;100298.97;4995442;28;20713;-76
2023/02/02 04:45:59;;;;;;;12.00;5.38;;;;;;;0.14;100.00;100186.19;4994479;28;20145;-80
2023/02/02 04:48:24;;;;;;;7.93;5.18;;;;;;;0.70;100.00;100302.69;5002755;28;20589;-79
2023/02/02 04:50:50;;;;;;;10.85;4.63;;;;;;;-0.13;100.00;100174.81;5004490;28;20049;-78
2023/02/02 04:53:15;;;;;;;7.47;4.70;;;;;;;0.05;100.00;100153.97;5003962;28;20057;-80
2023/02/02 04:55:41;;;;;;;11.20;4.95;;;;;;;0.83;100.00;100288.56;5004777;28;20030;-79
2023/02/02 04:58:06;;;;;;;11.30;6.45;;;;;;;0.35;100.00;100249.72;5002352;28;20535;-75
2023/02/02 05:00:32;;;;;;;9.45;5.72;;;;;;;0.83;100.00;100333.34;4996907;28;20057;-77
2023/02/02 05:02:57;;;;;;;8.48;4.47;;;;;;;0.15;100.00;100193.09;5004343;28;20128;-78
2023/02/02 05:05:23;;;;;;;8.20;5.28;;;;;;;0.04;100.00;100178.03;4998691;28;20108;-77
2023/02/02 05:07:48;;;;;;;11.77;4.75;;;;;;;0.16;100.00;100194.88;5001264;28;20033;-77
2023/02/02 05:10:14;;;;;;;9.05;5.95;;;;;;;0.09;100.00;100189.41;5003355;28;20536;-78
2023/02/02 05:12:39;;;;;;;7.65;4.82;;;;;;;0.73;100.00;100327.78;4997627;28;20076;-78
2023/02/02 05:15:05;;;;;;;42.63;7.50;;;;;;;-0.31;100.00;100147.47;5004804;28;20100;-77
2023/02/02 05:17:31;;;;;;;8.82;5.13;;;;;;;-0.01;100.00;100164.97;5003156;28;20141;-77
2023/02/02 05:19:57;;;;;;;12.52;5.03;;;;;;;0.88;100.00;100305.09;5005297;28;20034;-76
2023/02/02 05:22:22;;;;;;;7.97;4.97;;;;;;;0.86;100.00;100304.16;5001525;28;20343;-77
2023/02/02 05:24:48;;;;;;;12.20;6.57;;;;;;;0.12;100.00;100169.78;5005859;28;20075;-78
2023/02/02 05:27:13;;;;;;;13.73;6.60;;;;;;;0.94;100.00;100294.13;4995826;28;20112;-77
2023/02/02 05:29:39;;;;;;;13.27;5.70;;;;;;;0.27;100.00;100163.44;4998187;28;20045;-75
2023/02/02 05:32:05;;;;;;;11.40;7.00;;;;;;;0.84;100.00;100298.06;5004710;28;20074;-76
2023/02/02 05:34:30;;;;;;;19.65;5.47;;;;;;;0.87;100.00;100298.19;5003165;28;20077;-77
2023/02/02 05:36:56;;;;;;;13.38;5.97;;;;;;;0.34;100.00;100191.22;4999825;28;20053;-78
2023/02/02 05:39:21;;;;;;;12.18;7.38;;;;;;;0.19;100.00;100171.75;5000028;28;20132;-79
2023/02/02 05:41:47;;;;;;;8.90;6.10;;;;;;;0.22;100.00;100162.38;4997689;28;20078;-81
2023/02/02 05:44:13;;;;;;;12.63;6.18;;;;;;;0.76;100.00;100284.88;4996622;28;20140;-79
2023/02/02 05:46:40;;;;;;;8.30;5.10;;;;;;;0.88;100.00;100260.31;5002560;28;20030;-80
2023/02/02 05:49:06;;;;;;;10.50;5.68;;;;;;;1.14;100.00;100284.50;5002461;28;20045;-81
2023/02/02 05:51:38;;;;;;;12.95;5.97;;;;;;;1.20;100.00;100292.50;5005372;28;20046;-82
2023/02/02 05:54:03;;;;;;;9.27;5.38;;;;;;;-0.01;100.00;100141.75;4999532;28;20152;-82
2023/02/02 05:56:29;;;;;;;8.07;5.43;;;;;;;1.22;100.00;100306.34;4995252;28;20049;-79
2023/02/02 05:58:54;;;;;;;11.15;6.32;;;;;;;0.53;100.00;100180.75;5004859;28;20148;-78
2023/02/02 06:01:20;;;;;;;10.35;4.38;;;;;;;1.23;100.00;100267.63;5003245;28;20042;-77
2023/02/02 06:03:46;;;;;;;7.10;4.90;;;;;;;1.53;100.00;100307.41;4999209;28;20049;-77
2023/02/02 06:06:12;;;;;;;9.88;6.10;;;;;;;1.29;100.00;100279.91;4999051;28;20050;-78
2023/02/02 06:08:37;;;;;;;9.85;5.88;;;;;;;1.52;100.00;100308.22;5000601;28;20080;-78
2023/02/02 06:11:10;;;;;;;12.63;6.50;;;;;;;1.29;100.00;100259.22;4992910;28;20034;-78
2023/02/02 06:13:35;;;;;;;13.80;6.13;;;;;;;1.33;100.00;100257.59;4994265;28;20157;-77
2023/02/02 06:16:01;;;;;;;10.32;5.97;;;;;;;1.48;100.00;100282.28;4992368;28;20133;-76
2023/02/02 06:18:26;;;;;;;8.73;5.30;;;;;;;1.28;100.00;100270.38;4994764;28;20042;-76
2023/02/02 06:20:59;;;;;;;12.00;8.25;;;;;;;1.47;100.00;100297.72;4999297;28;20046;-76
2023/02/02 06:23:26;;;;;;;8.15;5.35;;;;;;;0.84;100.00;100168.91;4993324;28;20128;-76
2023/02/02 06:25:51;;;;;;;9.70;6.97;;;;;;;1.27;100.00;100240.19;4993365;28;20441;-78
2023/02/02 06:28:16;;;;;;;8.15;4.60;;;;;;;1.53;100.00;100300.53;4997920;28;20030;-76
2023/02/02 06:30:42;;;;;;;9.55;5.88;;;;;;;1.65;100.00;100319.06;4998172;28;20050;-77
2023/02/02 06:33:07;;;;;;;8.90;5.85;;;;;;;1.67;100.00;100291.53;4997407;28;20046;-76
2023/02/02 06:35:33;;;;;;;9.23;5.53;;;;;;;1.76;100.00;100296.16;4999042;28;20045;-78
2023/02/02 06:37:59;;;;;;;11.35;5.97;;;;;;;1.48;100.00;100284.88;4991897;28;20505;-78
2023/02/02 06:40:26;;;;;;;12.50;6.32;;;;;;;1.77;100.00;100317.72;4995081;28;20034;-76
2023/02/02 06:43:01;;;;;;;10.00;6.28;;;;;;;1.02;100.00;100181.59;4991745;28;20570;-77
2023/02/02 06:45:28;;;;;;;8.15;4.93;;;;;;;1.60;100.00;100304.22;4994550;28;20153;-77
2023/02/02 06:47:57;;;;;;;9.57;5.53;;;;;;;1.65;100.00;100292.31;4988307;28;20076;-76
2023/02/02 06:50:23;;;;;;;11.38;7.10;;;;;;;1.84;100.00;100330.03;4983657;28;20057;-76
2023/02/02 06:52:49;;;;;;;11.60;7.57;;;;;;;1.88;100.00;100313.78;4988574;28;20046;-77
2023/02/02 06:55:15;;;;;;;7.65;5.47;;;;;;;1.85;100.00;100313.66;4997625;28;20070;-78
2023/02/02 06:57:41;;;;;;;9.65;5.40;;;;;;;2.01;100.00;100323.69;4988201;28;20113;-77
2023/02/02 07:00:07;;;;;;;8.55;5.90;;;;;;;1.15;100.00;100180.34;5000135;28;20585;-78
2023/02/02 07:02:33;;;;;;;9.23;7.03;;;;;;;1.91;100.00;100329.41;4998966;28;20037;-78
2023/02/02 07:04:59;;;;;;;30.58;5.32;;;;;;;1.66;100.00;100288.88;5015839;28;20088;-77
2023/02/02 07:07:25;;;;;;;14.65;5.65;;;;;;;1.69;100.00;100291.59;4993391;28;20124;-76
2023/02/02 07:09:50;;;;;;;12.52;5.05;;;;;;;2.00;100.00;100301.25;4997833;28;20042;-78
2023/02/02 07:12:18;;;;;;;12.80;7.13;;;;;;;1.54;100.00;100234.19;4997063;28;20149;-77
2023/02/02 07:14:44;;;;;;;8.98;6.53;;;;;;;1.93;100.00;100320.00;5000791;28;20100;-81
2023/02/02 07:17:10;;;;;;;10.77;7.63;;;;;;;1.40;100.00;100190.66;5003358;28;20049;-79
2023/02/02 07:19:35;;;;;;;10.15;6.78;;;;;;;2.25;100.00;100338.28;4998160;28;20129;-77
2023/02/02 07:22:01;;;;;;;11.68;5.40;;;;;;;1.81;100.00;100267.84;5003212;28;20042;-77
2023/02/02 07:24:26;;;;;;;10.70;5.40;;;;;;;1.37;100.00;100202.59;4999590;28;21110;-75
2023/02/02 07:26:52;;;;;;;7.28;5.40;;;;;;;1.51;100.00;100263.41;4997843;28;20690;-77
2023/02/02 07:29:17;;;;;;;9.45;6.15;;;;;;;2.02;100.00;100356.53;4997623;28;20345;-78
2023/02/02 07:31:43;;;;;;;8.95;5.38;;;;;;;1.89;100.00;100336.22;5004858;28;20508;-77
2023/02/02 07:34:08;;;;;;;11.23;6.55;;;;;;;1.51;100.00;100265.13;4988190;28;20501;-79
2023/02/02 07:36:34;;;;;;;10.13;5.97;;;;;;;1.51;100.00;100254.78;4998940;28;20825;-76
2023/02/02 07:39:03;;;;;;;12.55;6.57;;;;;;;2.18;100.00;100364.78;4999245;28;20493;-77
2023/02/02 07:41:28;;;;;;;13.20;6.10;;;;;;;2.08;100.00;100355.84;5002634;28;20076;-77
2023/02/02 07:43:54;;;;;;;8.23;5.47;;;;;;;2.24;100.00;100386.56;5004244;28;20188;-78
2023/02/02 07:46:20;;;;;;;11.77;6.45;;;;;;;2.24;100.00;100380.53;5004252;28;20537;-79
2023/02/02 07:48:45;;;;;;;8.57;5.18;;;;;;;1.84;100.00;100260.19;4993755;28;20103;-76
2023/02/02 07:51:16;;;;;;;12.60;5.47;;;;;;;1.99;100.00;100252.94;5004965;28;20069;-77
2023/02/02 07:53:43;;;;;;;8.88;6.13;;;;;;;1.84;100.00;100211.91;5005849;28;20132;-78
2023/02/02 07:56:23;;;;;;;9.13;6.20;;;;;;;1.99;100.00;100255.50;4995647;28;20041;-76
2023/02/02 07:58:51;;;;;;;12.88;6.28;;;;;;;2.72;100.00;100357.91;4999664;28;20048;-78
2023/02/02 08:01:18;;;;;;;11.57;5.93;;;;;;;2.23;100.00;100258.00;4998581;28;20113;-77
2023/02/02 08:03:45;;;;;;;11.75;5.97;;;;;;;2.89;100.00;100361.00;5000069;28;20077;-77
2023/02/02 08:06:12;;;;;;;10.48;4.95;;;;;;;2.58;100.00;100358.31;4992930;28;20056;-79
2023/02/02 08:08:38;;;;;;;7.72;4.88;;;;;;;1.95;100.00;100238.13;4999758;28;20220;-80
2023/02/02 08:11:06;;;;;;;11.32;6.20;;;;;;;2.17;100.00;100243.97;5001840;28;20553;-78
2023/02/02 08:13:32;;;;;;;6.57;4.35;;;;;;;3.16;100.00;100368.72;5002727;28;20034;-78
2023/02/02 08:15:57;;;;;;;8.43;5.05;;;;;;;3.31;100.00;100357.03;4997298;28;20057;-78
2023/02/02 08:18:23;;;;;;;10.77;5.68;;;;;;;3.25;100.00;100315.34;5004278;28;20592;-78
2023/02/02 08:20:51;;;;;;;33.85;6.50;;;;;;;3.14;100.00;100341.00;5002677;28;20057;-78
2023/02/02 08:23:22;;;;;;;8.60;5.32;;;;;;;3.21;100.00;100310.91;5003623;28;20159;-79
2023/02/02 08:25:49;;;;;;;7.28;5.03;;;;;;;2.99;100.00;100236.88;5001014;28;20029;-76
2023/02/02 08:28:14;;;;;;;9.77;6.43;;;;;;;3.74;100.00;100368.56;5001312;28;20041;-75
2023/02/02 08:30:40;;;;;;;11.55;6.10;;;;;;;3.79;100.00;100362.69;4997368;28;20045;-74
2023/02/02 08:33:05;;;;;;;10.63;6.63;;;;;;;3.30;100.00;100226.50;4998203;28;20053;-73
2023/02/02 08:35:31;;;;;;;15.52;6.80;;;;;;;3.49;100.00;100271.94;4994938;28;20062;-76
2023/02/02 08:37:56;;;;;;;11.50;3.83;;;;;;;3.94;100.00;100384.69;4996671;28;20030;-75
2023/02/02 08:40:24;;;;;;;10.73;5.60;;;;;;;4.16;100.00;100360.16;5000343;28;20392;-76
2023/02/02 08:42:53;;;;;;;10.40;5.38;;;;;;;4.06;100.00;100342.59;4995230;28;20045;-76
2023/02/02 08:45:19;;;;;;;7.95;4.57;;;;;;;4.31;100.00;100372.63;5004356;28;20057;-78
2023/02/02 08:47:45;;;;;;;12.32;6.78;;;;;;;4.15;100.00;100350.63;5000639;28;20057;-77
2023/02/02 08:50:10;;;;;;;12.68;5.63;;;;;;;3.81;100.00;100270.16;5000898;28;20065;-77
2023/02/02 08:52:36;;;;;;;10.70;5.82;;;;;;;4.05;100.00;100287.19;4999464;28;20142;-77
2023/02/02 08:55:02;;;;;;;10.10;5.88;;;;;;;4.67;100.00;100392.56;4999535;28;20425;-76
2023/02/02 08:57:29;;;;;;;10.82;6.03;;;;;;;3.96;100.00;100282.66;4989492;28;20046;-77
2023/02/02 08:59:54;;;;;;;10.02;3.67;;;;;;;4.74;100.00;100410.03;4999681;28;20057;-77
2023/02/02 09:02:20;;;;;;;7.47;4.97;;;;;;;3.91;100.00;100255.72;5003964;28;20084;-77
2023/02/02 09:04:47;;;;;;;10.43;5.55;;;;;;;3.90;100.00;100246.16;4997438;28;20085;-77
2023/02/02 09:07:12;;;;;;;8.65;4.72;;;;;;;3.63;100.00;100279.19;4996338;28;20126;-76
2023/02/02 09:09:38;;;;;;;8.45;5.28;;;;;;;4.34;100.00;100396.97;4997911;28;20557;-78
2023/02/02 09:12:03;;;;;;;11.30;5.38;;;;;;;4.31;100.00;100403.78;4996476;28;20054;-76
2023/02/02 09:14:29;;;;;;;16.48;7.38;;;;;;;3.83;100.00;100306.53;4998391;28;20576;-78
2023/02/02 09:16:54;;;;;;;7.95;5.25;;;;;;;4.20;100.00;100412.19;5001157;28;20095;-76
2023/02/02 09:19:19;;;;;;;11.95;6.65;;;;;;;3.73;100.00;100302.84;5008019;28;20026;-78
2023/02/02 09:21:45;;;;;;;7.65;4.95;;;;;;;3.46;100.00;100286.53;5004635;28;20092;-76
2023/02/02 09:24:12;;;;;;;17.08;7.95;;;;;;;3.39;100.00;100259.56;4997797;28;20458;-77
2023/02/02 09:26:39;;;;;;;17.23;6.80;;;;;;;4.21;100.00;100381.91;4999275;28;20064;-75
2023/02/02 09:29:06;;;;;;;6.57;4.57;;;;;;;4.28;100.00;100394.19;4995773;28;20041;-80
2023/02/02 09:31:35;;;;;;;8.15;5.10;;;;;;;3.56;100.00;100249.66;4993737;28;20034;-82
2023/02/02 09:34:02;;;;;;;21.40;6.35;;;;;;;4.32;100.00;100276.56;4999117;28;20048;-79
2023/02/02 09:36:27;;;;;;;28.30;11.40;;;;;;;6.09;100.00;100369.47;4990388;28;20046;-82
2023/02/02 09:38:53;;;;;;;48.63;16.98;;;;;;;4.37;100.00;100261.09;4998483;28;20045;-81
2023/02/02 09:41:37;;;;;;;13.07;8.07;;;;;;;5.45;100.00;100369.09;4986537;28;20104;-81
2023/02/02 09:44:09;;;;;;;;;;;;;;;5.41;100.00;100382.06;5005100;28;20552;-81
2023/02/02 09:46:37;;;;;;;23.13;9.00;;;;;;;5.21;100.00;100381.63;4987540;28;20036;-82
2023/02/02 09:49:12;;;;;;;14.30;6.07;;;;;;;4.84;100.00;100329.69;4995838;28;20104;-83
2023/02/02 09:51:45;;;;;;;25.13;7.05;;;;;;;5.48;100.00;100390.00;4998019;28;20169;-81
2023/02/02 09:54:20;;;;;;;13.82;6.63;;;;;;;5.44;100.00;100395.13;4998323;28;20566;-83
2023/02/02 09:56:50;;;;;;;10.00;5.05;;;;;;;4.51;100.00;100392.19;5000714;28;20077;-81
2023/02/02 09:59:22;;;;;;;16.23;8.05;;;;;;;5.05;100.00;100372.59;5002196;28;20523;-83
2023/02/02 10:01:55;;;;;;;22.47;10.13;;;;;;;4.99;100.00;100290.16;5001807;28;20030;-79
2023/02/02 10:04:30;;;;;;;9.80;4.28;;;;;;;5.04;100.00;100363.06;5001202;28;20042;-75
2023/02/02 10:07:03;;;;;;;9.45;5.25;;;;;;;4.84;100.00;100290.69;4997705;28;20402;-74
2023/02/02 10:09:29;;;;;;;20.08;8.50;;;;;;;6.06;100.00;100389.38;4999945;28;20050;-74
2023/02/02 10:12:25;;;;;;;8.98;5.63;;;;;;;5.48;100.00;100400.41;5013158;28;20057;-73
2023/02/02 10:15:16;;;;;;;10.82;4.13;;;;;;;4.31;100.00;100229.78;5003408;28;20452;-75
2023/02/02 10:18:11;;;;;;;7.97;5.20;;;;;;;5.14;100.00;100359.81;5003925;28;20041;-75
2023/02/02 10:20:43;;;;;;;10.18;5.65;;;;;;;5.26;100.00;100349.66;4999604;28;20046;-78
2023/02/02 10:23:34;;;;;;;7.05;5.50;;;;;;;5.35;100.00;100356.78;5000450;28;20050;-83
2023/02/02 10:26:21;;;;;;;8.23;5.35;;;;;;;5.37;100.00;100346.41;5003364;28;20030;-80
2023/02/02 10:29:29;;;;;;;12.32;6.03;;;;;;;5.49;100.00;100342.31;4999914;28;20068;-78
2023/02/02 10:32:21;;;;;;;6.78;4.30;;;;;;;5.40;100.00;100346.44;5006211;28;20037;-81
2023/02/02 10:35:02;;;;;;;9.68;6.20;;;;;;;5.35;100.00;100333.34;5000101;28;20259;-79
2023/02/02 10:37:53;;;;;;;9.52;6.38;;;;;;;5.15;100.00;100338.16;4989776;28;20029;-81
2023/02/02 10:40:46;;;;;;;12.30;6.70;;;;;;;5.20;100.00;100325.25;5003195;28;20081;-80
2023/02/02 10:46:02;;;;;;;12.63;7.00;;;;;;;4.43;100.00;100196.28;5001692;28;20120;-84
2023/02/02 10:48:37;;;;;;;14.25;8.43;;;;;;;4.92;100.00;100300.41;5003612;28;20448;-81
2023/02/02 10:51:10;;;;;;;9.88;7.93;;;;;;;5.15;100.00;100330.38;4996120;28;20054;-74
2023/02/02 10:53:36;;;;;;;12.02;6.00;;;;;;;4.58;100.00;100201.78;5001024;28;20098;-79
2023/02/02 10:56:10;;;;;;;7.47;4.50;;;;;;;4.07;100.00;100186.84;5001577;28;20088;-77
2023/02/02 10:58:57;;;;;;;;;;;;;;;5.03;100.00;100304.09;5009903;28;20397;-80
2023/02/02 11:01:22;;;;;;;8.75;6.22;;;;;;;5.11;100.00;100294.72;5002998;28;19933;-81
2023/02/02 11:06:48;;;;;;;8.40;6.32;;;;;;;4.91;100.00;100301.25;4999760;28;20053;-80
2023/02/02 11:06:50;;;;;;;9.20;4.68;;;;;;;4.95;100.00;100293.53;5001971;28;20089;-80
2023/02/02 11:09:25;;;;;;;7.47;4.68;;;;;;;4.63;100.00;100272.91;5002028;28;20049;-80
2023/02/02 11:11:54;;;;;;;10.93;6.47;;;;;;;4.11;100.00;100195.59;5003169;28;20052;-81
2023/02/02 11:14:36;;;;;;;10.25;5.38;;;;;;;3.95;100.00;100158.00;5001999;28;20060;-81
2023/02/02 11:17:05;;;;;;;8.95;5.38;;;;;;;4.62;100.00;100267.72;5000616;28;20456;-78
2023/02/02 11:19:33;;;;;;;9.30;5.82;;;;;;;4.00;100.00;100151.19;4994196;28;20041;-81
2023/02/02 11:22:03;;;;;;;10.88;6.00;;;;;;;4.69;100.00;100245.34;4999719;28;20513;-79
2023/02/02 11:24:43;;;;;;;9.18;6.70;;;;;;;4.83;100.00;100282.88;4999119;28;20105;-78
2023/02/02 11:27:22;;;;;;;9.23;5.72;;;;;;;4.88;100.00;100264.78;4994602;28;20049;-77
2023/02/02 11:29:53;;;;;;;25.23;6.53;;;;;;;4.04;100.00;100141.78;4994505;28;20050;-79
2023/02/02 11:32:20;;;;;;;13.63;7.10;;;;;;;4.42;100.00;100181.53;4995703;28;20129;-79
2023/02/02 11:34:45;;;;;;;10.93;6.40;;;;;;;4.13;100.00;100131.59;4999779;28;20504;-77
2023/02/02 11:37:12;;;;;;;10.43;7.00;;;;;;;4.98;100.00;100253.72;5003459;28;20045;-77
2023/02/02 11:39:40;;;;;;;9.77;4.50;;;;;;;4.69;100.00;100243.59;5004520;28;20061;-78